sensor_id;sensor_type;location;lat;lon;timestamp;temperature;humidity
20398;DHT22;10358;49.590;11.030;2023-03-02T00:00:41;0.70;99.90
20398;DHT22;10358;49.590;11.030;2023-03-02T00:03:08;0.70;99.90
20398;DHT22;10358;49.590;11.030;2023-03-02T00:05:35;0.60;99.90
20398;DHT22;10358;49.590;11.030;2023-03-02T00:08:02;0.60;99.90
20398;DHT22;10358;49.590;11.030;2023-03-02T00:10:28;0.60;99.90
20398;DHT22;10358;49.590;11.030;2023-03-02T00:12:54;0.50;99.90
20398;DHT22;10358;49.590;11.030;2023-03-02T00:15:20;0.50;99.90
20398;DHT22;10358;49.590;11.030;2023-03-02T00:17:45;0.50;99.90
20398;DHT22;10358;49.590;11.030;2023-03-02T00:20:11;0.50;99.90
20398;DHT22;10358;49.590;11.030;2023-03-02T00:22:37;0.50;99.90
20398;DHT22;10358;49.590;11.030;2023-03-02T00:25:04;0.40;99.90
20398;DHT22;10358;49.590;11.030;2023-03-02T00:27:29;0.40;99.90
20398;DHT22;10358;49.590;11.030;2023-03-02T00:29:55;0.30;99.90
20398;DHT22;10358;49.590;11.030;2023-03-02T00:32:22;0.40;99.90
20398;DHT22;10358;49.590;11.030;2023-03-02T00:34:48;0.30;99.90
20398;DHT22;10358;49.590;11.030;2023-03-02T00:37:14;0.40;99.90
20398;DHT22;10358;49.590;11.030;2023-03-02T00:39:39;0.30;99.90
20398;DHT22;10358;49.590;11.030;2023-03-02T00:42:05;0.30;99.90
20398;DHT22;10358;49.590;11.030;2023-03-02T00:44:30;0.30;99.90
20398;DHT22;10358;49.590;11.030;2023-03-02T00:46:56;0.20;99.90
20398;DHT22;10358;49.590;11.030;2023-03-02T00:49:22;0.20;99.90
20398;DHT22;10358;49.590;11.030;2023-03-02T00:51:47;0.20;99.90
20398;DHT22;10358;49.590;11.030;2023-03-02T00:54:13;0.20;99.90
20398;DHT22;10358;49.590;11.030;2023-03-02T00:56:38;0.20;99.90
20398;DHT22;10358;49.590;11.030;2023-03-02T00:59:09;0.20;99.90
20398;DHT22;10358;49.590;11.030;2023-03-02T01:01:51;0.20;99.90
20398;DHT22;10358;49.590;11.030;2023-03-02T01:04:48;0.30;99.90
20398;DHT22;10358;49.590;11.030;2023-03-02T01:07:16;0.30;99.90
20398;DHT22;10358;49.590;11.030;2023-03-02T01:09:43;0.40;99.90
20398;DHT22;10358;49.590;11.030;2023-03-02T01:12:10;0.40;99.90
20398;DHT22;10358;49.590;11.030;2023-03-02T01:14:37;0.50;99.90
20398;DHT22;10358;49.590;11.030;2023-03-02T01:17:04;0.60;99.90
20398;DHT22;10358;49.590;11.030;2023-03-02T01:19:30;0.70;99.90
20398;DHT22;10358;49.590;11.030;2023-03-02T01:21:56;0.70;99.90
20398;DHT22;10358;49.590;11.030;2023-03-02T01:24:22;0.80;99.90
20398;DHT22;10358;49.590;11.030;2023-03-02T01:26:47;0.80;99.90
20398;DHT22;10358;49.590;11.030;2023-03-02T01:29:13;0.90;99.90
20398;DHT22;10358;49.590;11.030;2023-03-02T01:31:38;0.80;99.90
20398;DHT22;10358;49.590;11.030;2023-03-02T01:34:07;0.90;99.90
20398;DHT22;10358;49.590;11.030;2023-03-02T01:36:33;0.90;99.90
20398;DHT22;10358;49.590;11.030;2023-03-02T01:38:58;0.90;99.90
20398;DHT22;10358;49.590;11.030;2023-03-02T01:41:24;0.90;99.90
20398;DHT22;10358;49.590;11.030;2023-03-02T01:43:49;0.90;99.90
20398;DHT22;10358;49.590;11.030;2023-03-02T01:46:26;0.90;99.90
20398;DHT22;10358;49.590;11.030;2023-03-02T01:49:04;0.90;99.90
20398;DHT22;10358;49.590;11.030;2023-03-02T01:51:34;0.90;99.90
20398;DHT22;10358;49.590;11.030;2023-03-02T01:54:04;0.90;99.90
20398;DHT22;10358;49.590;11.030;2023-03-02T01:56:32;0.80;99.90
20398;DHT22;10358;49.590;11.030;2023-03-02T01:59:04;0.70;99.90
20398;DHT22;10358;49.590;11.030;2023-03-02T02:01:33;0.70;99.90
20398;DHT22;10358;49.590;11.030;2023-03-02T02:03:59;0.60;99.90
20398;DHT22;10358;49.590;11.030;2023-03-02T02:09:03;0.50;99.90
20398;DHT22;10358;49.590;11.030;2023-03-02T02:11:30;0.40;99.90
20398;DHT22;10358;49.590;11.030;2023-03-02T02:13:59;0.40;99.90
20398;DHT22;10358;49.590;11.030;2023-03-02T02:16:27;0.40;99.90
20398;DHT22;10358;49.590;11.030;2023-03-02T02:18:53;0.40;99.90
20398;DHT22;10358;49.590;11.030;2023-03-02T02:21:20;0.30;99.90
20398;DHT22;10358;49.590;11.030;2023-03-02T02:26:34;0.20;99.90
20398;DHT22;10358;49.590;11.030;2023-03-02T02:29:04;0.10;99.90
20398;DHT22;10358;49.590;11.030;2023-03-02T02:31:42;0.10;99.90
20398;DHT22;10358;49.590;11.030;2023-03-02T02:34:17;0.10;99.90
20398;DHT22;10358;49.590;11.030;2023-03-02T02:36:47;0.00;99.90
20398;DHT22;10358;49.590;11.030;2023-03-02T02:39:18;0.00;99.90
20398;DHT22;10358;49.590;11.030;2023-03-02T02:41:46;0.00;99.90
20398;DHT22;10358;49.590;11.030;2023-03-02T02:44:15;0.00;99.90
20398;DHT22;10358;49.590;11.030;2023-03-02T02:46:42;0.00;99.90
20398;DHT22;10358;49.590;11.030;2023-03-02T02:49:28;0.10;99.90
20398;DHT22;10358;49.590;11.030;2023-03-02T02:51:54;0.10;99.90
20398;DHT22;10358;49.590;11.030;2023-03-02T02:54:20;0.00;99.90
20398;DHT22;10358;49.590;11.030;2023-03-02T02:56:48;0.00;99.90
20398;DHT22;10358;49.590;11.030;2023-03-02T02:59:29;-0.10;99.90
20398;DHT22;10358;49.590;11.030;2023-03-02T03:01:56;-0.10;99.90
20398;DHT22;10358;49.590;11.030;2023-03-02T03:04:25;-0.10;99.90
20398;DHT22;10358;49.590;11.030;2023-03-02T03:06:58;-0.10;99.90
20398;DHT22;10358;49.590;11.030;2023-03-02T03:09:24;0.00;99.90
20398;DHT22;10358;49.590;11.030;2023-03-02T03:12:13;-0.10;99.90
20398;DHT22;10358;49.590;11.030;2023-03-02T03:14:40;-0.10;99.90
20398;DHT22;10358;49.590;11.030;2023-03-02T03:17:07;-0.20;99.90
20398;DHT22;10358;49.590;11.030;2023-03-02T03:19:38;-0.10;99.90
20398;DHT22;10358;49.590;11.030;2023-03-02T03:22:04;-0.20;99.90
20398;DHT22;10358;49.590;11.030;2023-03-02T03:24:33;-0.20;99.90
20398;DHT22;10358;49.590;11.030;2023-03-02T03:26:59;-0.20;99.90
20398;DHT22;10358;49.590;11.030;2023-03-02T03:29:27;-0.20;99.90
20398;DHT22;10358;49.590;11.030;2023-03-02T03:31:55;-0.30;99.90
20398;DHT22;10358;49.590;11.030;2023-03-02T03:34:21;-0.30;99.90
20398;DHT22;10358;49.590;11.030;2023-03-02T03:36:47;-0.40;99.90
20398;DHT22;10358;49.590;11.030;2023-03-02T03:39:15;-0.40;99.90
20398;DHT22;10358;49.590;11.030;2023-03-02T03:41:40;-0.50;99.90
20398;DHT22;10358;49.590;11.030;2023-03-02T03:44:06;-0.40;99.90
20398;DHT22;10358;49.590;11.030;2023-03-02T03:46:33;-0.40;99.90
20398;DHT22;10358;49.590;11.030;2023-03-02T03:48:58;-0.40;99.90
20398;DHT22;10358;49.590;11.030;2023-03-02T03:51:25;-0.50;99.90
20398;DHT22;10358;49.590;11.030;2023-03-02T03:53:50;-0.50;99.90
20398;DHT22;10358;49.590;11.030;2023-03-02T03:56:31;-0.50;99.90
20398;DHT22;10358;49.590;11.030;2023-03-02T03:58:58;-0.60;99.90
20398;DHT22;10358;49.590;11.030;2023-03-02T04:01:35;-0.60;99.90
20398;DHT22;10358;49.590;11.030;2023-03-02T04:04:02;-0.60;99.90
20398;DHT22;10358;49.590;11.030;2023-03-02T04:06:28;-0.60;99.90
20398;DHT22;10358;49.590;11.030;2023-03-02T04:08:54;-0.60;99.90
20398;DHT22;10358;49.590;11.030;2023-03-02T04:11:19;-0.60;99.90
20398;DHT22;10358;49.590;11.030;2023-03-02T04:13:45;-0.60;99.90
20398;DHT22;10358;49.590;11.030;2023-03-02T04:16:10;-0.50;99.90
20398;DHT22;10358;49.590;11.030;2023-03-02T04:18:36;-0.50;99.90
20398;DHT22;10358;49.590;11.030;2023-03-02T04:21:01;-0.40;99.90
20398;DHT22;10358;49.590;11.030;2023-03-02T04:23:27;-0.40;99.90
20398;DHT22;10358;49.590;11.030;2023-03-02T04:25:52;-0.50;99.90
20398;DHT22;10358;49.590;11.030;2023-03-02T04:28:18;-0.50;99.90
20398;DHT22;10358;49.590;11.030;2023-03-02T04:30:43;-0.50;99.90
20398;DHT22;10358;49.590;11.030;2023-03-02T04:33:09;-0.50;99.90
20398;DHT22;10358;49.590;11.030;2023-03-02T04:35:35;-0.60;99.90
20398;DHT22;10358;49.590;11.030;2023-03-02T04:38:01;-0.60;99.90
20398;DHT22;10358;49.590;11.030;2023-03-02T04:40:27;-0.60;99.90
20398;DHT22;10358;49.590;11.030;2023-03-02T04:42:53;-0.50;99.90
20398;DHT22;10358;49.590;11.030;2023-03-02T04:45:18;-0.50;99.90
20398;DHT22;10358;49.590;11.030;2023-03-02T04:47:44;-0.40;99.90
20398;DHT22;10358;49.590;11.030;2023-03-02T04:50:11;-0.30;99.90
20398;DHT22;10358;49.590;11.030;2023-03-02T04:52:37;-0.30;99.90
20398;DHT22;10358;49.590;11.030;2023-03-02T04:55:04;-0.30;99.90
20398;DHT22;10358;49.590;11.030;2023-03-02T04:57:31;-0.20;99.90
20398;DHT22;10358;49.590;11.030;2023-03-02T04:59:56;-0.20;99.90
20398;DHT22;10358;49.590;11.030;2023-03-02T05:02:22;-0.20;99.90
20398;DHT22;10358;49.590;11.030;2023-03-02T05:04:48;-0.10;99.90
20398;DHT22;10358;49.590;11.030;2023-03-02T05:07:13;-0.10;99.90
20398;DHT22;10358;49.590;11.030;2023-03-02T05:09:39;-0.10;99.90
20398;DHT22;10358;49.590;11.030;2023-03-02T05:12:04;-0.10;99.90
20398;DHT22;10358;49.590;11.030;2023-03-02T05:14:30;0.00;99.90
20398;DHT22;10358;49.590;11.030;2023-03-02T05:16:56;0.00;99.90
20398;DHT22;10358;49.590;11.030;2023-03-02T05:19:22;0.00;99.90
20398;DHT22;10358;49.590;11.030;2023-03-02T05:21:48;0.00;99.90
20398;DHT22;10358;49.590;11.030;2023-03-02T05:24:13;0.10;99.90
20398;DHT22;10358;49.590;11.030;2023-03-02T05:26:39;0.10;99.90
20398;DHT22;10358;49.590;11.030;2023-03-02T05:29:05;0.20;99.90
20398;DHT22;10358;49.590;11.030;2023-03-02T05:31:42;0.40;99.90
20398;DHT22;10358;49.590;11.030;2023-03-02T05:34:10;0.60;99.90
20398;DHT22;10358;49.590;11.030;2023-03-02T05:36:36;0.80;99.90
20398;DHT22;10358;49.590;11.030;2023-03-02T05:39:03;0.90;99.90
20398;DHT22;10358;49.590;11.030;2023-03-02T05:41:28;1.00;99.90
20398;DHT22;10358;49.590;11.030;2023-03-02T05:43:54;1.00;99.90
20398;DHT22;10358;49.590;11.030;2023-03-02T05:46:20;1.10;99.90
20398;DHT22;10358;49.590;11.030;2023-03-02T05:48:45;1.10;99.90
20398;DHT22;10358;49.590;11.030;2023-03-02T05:51:11;1.20;99.90
20398;DHT22;10358;49.590;11.030;2023-03-02T05:53:36;1.30;99.90
20398;DHT22;10358;49.590;11.030;2023-03-02T05:56:02;1.30;99.90
20398;DHT22;10358;49.590;11.030;2023-03-02T05:58:28;1.30;99.90
20398;DHT22;10358;49.590;11.030;2023-03-02T06:00:54;1.30;99.90
20398;DHT22;10358;49.590;11.030;2023-03-02T06:03:19;1.40;99.90
20398;DHT22;10358;49.590;11.030;2023-03-02T06:05:45;1.40;99.90
20398;DHT22;10358;49.590;11.030;2023-03-02T06:08:16;1.40;99.90
20398;DHT22;10358;49.590;11.030;2023-03-02T06:10:42;1.40;99.90
20398;DHT22;10358;49.590;11.030;2023-03-02T06:13:08;1.40;99.90
20398;DHT22;10358;49.590;11.030;2023-03-02T06:15:33;1.40;99.90
20398;DHT22;10358;49.590;11.030;2023-03-02T06:17:59;1.50;99.90
20398;DHT22;10358;49.590;11.030;2023-03-02T06:20:25;1.50;99.90
20398;DHT22;10358;49.590;11.030;2023-03-02T06:22:50;1.50;99.90
20398;DHT22;10358;49.590;11.030;2023-03-02T06:25:19;1.60;99.90
20398;DHT22;10358;49.590;11.030;2023-03-02T06:27:45;1.60;99.90
20398;DHT22;10358;49.590;11.030;2023-03-02T06:30:13;1.70;99.90
20398;DHT22;10358;49.590;11.030;2023-03-02T06:32:39;1.70;99.90
20398;DHT22;10358;49.590;11.030;2023-03-02T06:35:06;1.80;99.90
20398;DHT22;10358;49.590;11.030;2023-03-02T06:37:32;1.90;99.90
20398;DHT22;10358;49.590;11.030;2023-03-02T06:39:58;1.90;99.90
20398;DHT22;10358;49.590;11.030;2023-03-02T06:42:25;2.00;99.90
20398;DHT22;10358;49.590;11.030;2023-03-02T06:44:51;2.10;99.90
20398;DHT22;10358;49.590;11.030;2023-03-02T06:47:20;2.10;99.90
20398;DHT22;10358;49.590;11.030;2023-03-02T06:49:45;2.20;99.90
20398;DHT22;10358;49.590;11.030;2023-03-02T06:52:11;2.20;99.90
20398;DHT22;10358;49.590;11.030;2023-03-02T06:54:38;2.30;99.90
20398;DHT22;10358;49.590;11.030;2023-03-02T06:57:04;2.30;99.90
20398;DHT22;10358;49.590;11.030;2023-03-02T06:59:29;2.40;99.90
20398;DHT22;10358;49.590;11.030;2023-03-02T07:01:55;2.50;99.90
20398;DHT22;10358;49.590;11.030;2023-03-02T07:04:20;2.60;99.90
20398;DHT22;10358;49.590;11.030;2023-03-02T07:06:46;2.70;99.90
20398;DHT22;10358;49.590;11.030;2023-03-02T07:09:12;2.80;99.90
20398;DHT22;10358;49.590;11.030;2023-03-02T07:11:38;2.80;99.90
20398;DHT22;10358;49.590;11.030;2023-03-02T07:14:04;2.90;99.90
20398;DHT22;10358;49.590;11.030;2023-03-02T07:16:29;3.00;99.90
20398;DHT22;10358;49.590;11.030;2023-03-02T07:18:55;3.10;99.90
20398;DHT22;10358;49.590;11.030;2023-03-02T07:21:21;3.20;99.90
20398;DHT22;10358;49.590;11.030;2023-03-02T07:23:47;3.20;99.90
20398;DHT22;10358;49.590;11.030;2023-03-02T07:26:12;3.30;99.90
20398;DHT22;10358;49.590;11.030;2023-03-02T07:28:39;3.40;99.90
20398;DHT22;10358;49.590;11.030;2023-03-02T07:31:06;3.40;99.90
20398;DHT22;10358;49.590;11.030;2023-03-02T07:33:32;3.50;99.90
20398;DHT22;10358;49.590;11.030;2023-03-02T07:35:58;3.60;99.90
20398;DHT22;10358;49.590;11.030;2023-03-02T07:38:23;3.70;99.90
20398;DHT22;10358;49.590;11.030;2023-03-02T07:40:49;3.70;99.90
20398;DHT22;10358;49.590;11.030;2023-03-02T07:43:14;3.80;99.90
20398;DHT22;10358;49.590;11.030;2023-03-02T07:45:40;3.90;99.90
20398;DHT22;10358;49.590;11.030;2023-03-02T07:48:06;4.00;99.90
20398;DHT22;10358;49.590;11.030;2023-03-02T07:50:32;4.10;99.90
20398;DHT22;10358;49.590;11.030;2023-03-02T07:52:58;4.10;99.90
20398;DHT22;10358;49.590;11.030;2023-03-02T07:55:23;4.30;99.90
20398;DHT22;10358;49.590;11.030;2023-03-02T07:57:49;4.40;99.90
20398;DHT22;10358;49.590;11.030;2023-03-02T08:00:15;4.50;99.90
20398;DHT22;10358;49.590;11.030;2023-03-02T08:02:41;4.50;99.90
20398;DHT22;10358;49.590;11.030;2023-03-02T08:05:08;4.50;99.90
20398;DHT22;10358;49.590;11.030;2023-03-02T08:07:34;4.80;99.90
20398;DHT22;10358;49.590;11.030;2023-03-02T08:09:59;4.90;99.90
20398;DHT22;10358;49.590;11.030;2023-03-02T08:12:26;5.00;99.90
20398;DHT22;10358;49.590;11.030;2023-03-02T08:14:52;5.00;99.90
20398;DHT22;10358;49.590;11.030;2023-03-02T08:17:17;5.00;99.90
20398;DHT22;10358;49.590;11.030;2023-03-02T08:19:43;5.10;99.90
20398;DHT22;10358;49.590;11.030;2023-03-02T08:22:09;5.20;99.90
20398;DHT22;10358;49.590;11.030;2023-03-02T08:24:35;5.20;99.90
20398;DHT22;10358;49.590;11.030;2023-03-02T08:27:02;5.20;99.90
20398;DHT22;10358;49.590;11.030;2023-03-02T08:29:28;5.30;99.90
20398;DHT22;10358;49.590;11.030;2023-03-02T08:31:54;5.40;99.90
20398;DHT22;10358;49.590;11.030;2023-03-02T08:34:19;5.50;99.90
20398;DHT22;10358;49.590;11.030;2023-03-02T08:36:45;5.60;99.80
20398;DHT22;10358;49.590;11.030;2023-03-02T08:39:11;5.60;99.60
20398;DHT22;10358;49.590;11.030;2023-03-02T08:41:37;5.80;99.00
20398;DHT22;10358;49.590;11.030;2023-03-02T08:44:02;5.80;98.40
20398;DHT22;10358;49.590;11.030;2023-03-02T08:46:28;5.90;97.90
20398;DHT22;10358;49.590;11.030;2023-03-02T08:48:55;6.00;96.80
20398;DHT22;10358;49.590;11.030;2023-03-02T08:51:22;6.00;96.70
20398;DHT22;10358;49.590;11.030;2023-03-02T08:53:50;6.00;96.20
20398;DHT22;10358;49.590;11.030;2023-03-02T08:58:46;6.20;95.50
20398;DHT22;10358;49.590;11.030;2023-03-02T09:01:16;6.30;94.80
20398;DHT22;10358;49.590;11.030;2023-03-02T09:03:42;6.40;94.50
20398;DHT22;10358;49.590;11.030;2023-03-02T09:06:07;6.40;94.00
20398;DHT22;10358;49.590;11.030;2023-03-02T09:08:33;6.50;93.50
20398;DHT22;10358;49.590;11.030;2023-03-02T09:10:58;6.60;93.20
20398;DHT22;10358;49.590;11.030;2023-03-02T09:13:24;6.80;92.60
20398;DHT22;10358;49.590;11.030;2023-03-02T09:15:49;6.80;92.30
20398;DHT22;10358;49.590;11.030;2023-03-02T09:18:15;6.80;92.20
20398;DHT22;10358;49.590;11.030;2023-03-02T09:20:40;6.80;91.70
20398;DHT22;10358;49.590;11.030;2023-03-02T09:23:06;6.80;91.40
20398;DHT22;10358;49.590;11.030;2023-03-02T09:25:31;6.90;91.70
20398;DHT22;10358;49.590;11.030;2023-03-02T09:27:57;7.00;91.60
20398;DHT22;10358;49.590;11.030;2023-03-02T09:30:23;7.20;90.40
20398;DHT22;10358;49.590;11.030;2023-03-02T09:32:48;7.30;90.40
20398;DHT22;10358;49.590;11.030;2023-03-02T09:35:14;7.40;90.20
20398;DHT22;10358;49.590;11.030;2023-03-02T09:37:39;7.40;89.80
20398;DHT22;10358;49.590;11.030;2023-03-02T09:40:18;7.50;89.10
20398;DHT22;10358;49.590;11.030;2023-03-02T09:43:05;7.60;89.20
20398;DHT22;10358;49.590;11.030;2023-03-02T09:48:36;7.80;86.40
20398;DHT22;10358;49.590;11.030;2023-03-02T09:51:27;7.90;85.60
20398;DHT22;10358;49.590;11.030;2023-03-02T09:56:28;7.90;85.20
20398;DHT22;10358;49.590;11.030;2023-03-02T09:59:10;8.00;85.70
20398;DHT22;10358;49.590;11.030;2023-03-02T10:01:40;8.10;85.00
20398;DHT22;10358;49.590;11.030;2023-03-02T10:04:35;8.20;84.00
20398;DHT22;10358;49.590;11.030;2023-03-02T10:07:14;8.30;83.40
20398;DHT22;10358;49.590;11.030;2023-03-02T10:09:40;8.40;82.50
20398;DHT22;10358;49.590;11.030;2023-03-02T10:12:35;8.40;81.50
20398;DHT22;10358;49.590;11.030;2023-03-02T10:15:50;8.40;81.00
20398;DHT22;10358;49.590;11.030;2023-03-02T10:18:23;8.60;80.40
20398;DHT22;10358;49.590;11.030;2023-03-02T10:20:59;8.60;80.80
20398;DHT22;10358;49.590;11.030;2023-03-02T10:23:54;8.70;80.70
20398;DHT22;10358;49.590;11.030;2023-03-02T10:31:44;8.80;79.00
20398;DHT22;10358;49.590;11.030;2023-03-02T10:34:11;9.00;80.50
20398;DHT22;10358;49.590;11.030;2023-03-02T10:36:39;9.10;78.70
20398;DHT22;10358;49.590;11.030;2023-03-02T10:39:15;9.10;78.40
20398;DHT22;10358;49.590;11.030;2023-03-02T10:41:50;9.30;76.70
20398;DHT22;10358;49.590;11.030;2023-03-02T10:46:55;9.20;77.10
20398;DHT22;10358;49.590;11.030;2023-03-02T10:49:26;9.30;76.70
20398;DHT22;10358;49.590;11.030;2023-03-02T10:52:18;9.30;76.40
20398;DHT22;10358;49.590;11.030;2023-03-02T10:54:42;9.40;76.70
20398;DHT22;10358;49.590;11.030;2023-03-02T10:57:37;9.50;76.30
20398;DHT22;10358;49.590;11.030;2023-03-02T11:02:58;9.60;81.60
20398;DHT22;10358;49.590;11.030;2023-03-02T11:05:37;9.60;75.50
20398;DHT22;10358;49.590;11.030;2023-03-02T11:08:16;9.70;80.80
20398;DHT22;10358;49.590;11.030;2023-03-02T11:10:55;9.90;74.20
20398;DHT22;10358;49.590;11.030;2023-03-02T11:15:56;9.60;72.40
20398;DHT22;10358;49.590;11.030;2023-03-02T11:18:35;9.60;73.20
20398;DHT22;10358;49.590;11.030;2023-03-02T11:29:03;9.80;72.70
20398;DHT22;10358;49.590;11.030;2023-03-02T11:34:23;9.90;71.90
20398;DHT22;10358;49.590;11.030;2023-03-02T11:42:20;10.30;76.20
20398;DHT22;10358;49.590;11.030;2023-03-02T11:44:47;10.40;71.40
20398;DHT22;10358;49.590;11.030;2023-03-02T11:47:13;10.50;70.90
20398;DHT22;10358;49.590;11.030;2023-03-02T11:50:02;10.60;69.60
20398;DHT22;10358;49.590;11.030;2023-03-02T11:52:32;10.60;70.20
20398;DHT22;10358;49.590;11.030;2023-03-02T11:55:17;10.70;70.30
20398;DHT22;10358;49.590;11.030;2023-03-02T11:57:46;10.80;70.20
20398;DHT22;10358;49.590;11.030;2023-03-02T12:00:28;10.80;69.70
20398;DHT22;10358;49.590;11.030;2023-03-02T12:03:19;10.80;69.50
20398;DHT22;10358;49.590;11.030;2023-03-02T12:10:59;11.10;69.50
20398;DHT22;10358;49.590;11.030;2023-03-02T12:15:53;11.20;68.30
20398;DHT22;10358;49.590;11.030;2023-03-02T12:21:08;11.30;77.50
20398;DHT22;10358;49.590;11.030;2023-03-02T12:23:39;11.40;67.80
20398;DHT22;10358;49.590;11.030;2023-03-02T12:26:22;11.60;67.00
20398;DHT22;10358;49.590;11.030;2023-03-02T12:31:54;11.80;66.80
20398;DHT22;10358;49.590;11.030;2023-03-02T12:36:57;12.00;65.10
20398;DHT22;10358;49.590;11.030;2023-03-02T12:40:09;12.10;65.10
20398;DHT22;10358;49.590;11.030;2023-03-02T12:48:22;12.40;64.80
20398;DHT22;10358;49.590;11.030;2023-03-02T12:50:49;12.50;64.70
20398;DHT22;10358;49.590;11.030;2023-03-02T12:53:18;12.50;63.50
20398;DHT22;10358;49.590;11.030;2023-03-02T12:55:44;12.50;63.30
20398;DHT22;10358;49.590;11.030;2023-03-02T12:58:21;12.60;63.20
20398;DHT22;10358;49.590;11.030;2023-03-02T13:00:56;12.70;63.10
20398;DHT22;10358;49.590;11.030;2023-03-02T13:03:23;12.80;62.70
20398;DHT22;10358;49.590;11.030;2023-03-02T13:05:50;12.90;62.30
20398;DHT22;10358;49.590;11.030;2023-03-02T13:13:19;13.20;61.10
20398;DHT22;10358;49.590;11.030;2023-03-02T13:15:56;13.30;61.50
20398;DHT22;10358;49.590;11.030;2023-03-02T13:18:24;13.40;60.60
20398;DHT22;10358;49.590;11.030;2023-03-02T13:20:51;13.60;60.70
20398;DHT22;10358;49.590;11.030;2023-03-02T13:23:18;13.60;60.20
20398;DHT22;10358;49.590;11.030;2023-03-02T13:25:55;13.60;60.30
20398;DHT22;10358;49.590;11.030;2023-03-02T13:28:28;13.70;60.00
20398;DHT22;10358;49.590;11.030;2023-03-02T13:33:23;14.00;58.40
20398;DHT22;10358;49.590;11.030;2023-03-02T13:35:49;14.00;58.50
20398;DHT22;10358;49.590;11.030;2023-03-02T13:38:17;14.20;57.80
20398;DHT22;10358;49.590;11.030;2023-03-02T13:40:47;14.30;57.90
20398;DHT22;10358;49.590;11.030;2023-03-02T13:43:34;14.50;63.10
20398;DHT22;10358;49.590;11.030;2023-03-02T13:46:24;14.20;56.90
20398;DHT22;10358;49.590;11.030;2023-03-02T13:48:58;14.20;57.50
20398;DHT22;10358;49.590;11.030;2023-03-02T13:51:25;14.40;57.80
20398;DHT22;10358;49.590;11.030;2023-03-02T13:53:59;14.60;57.70
20398;DHT22;10358;49.590;11.030;2023-03-02T13:56:32;14.80;57.10
20398;DHT22;10358;49.590;11.030;2023-03-02T13:58:58;14.70;56.40
20398;DHT22;10358;49.590;11.030;2023-03-02T14:01:24;14.90;55.40
20398;DHT22;10358;49.590;11.030;2023-03-02T14:03:50;14.90;55.80
20398;DHT22;10358;49.590;11.030;2023-03-02T14:06:16;15.00;55.90
20398;DHT22;10358;49.590;11.030;2023-03-02T14:08:43;15.00;55.20
20398;DHT22;10358;49.590;11.030;2023-03-02T14:11:11;15.00;55.40
20398;DHT22;10358;49.590;11.030;2023-03-02T14:13:44;15.10;55.50
20398;DHT22;10358;49.590;11.030;2023-03-02T14:16:12;15.30;55.50
20398;DHT22;10358;49.590;11.030;2023-03-02T14:18:49;15.40;68.80
20398;DHT22;10358;49.590;11.030;2023-03-02T14:21:20;15.40;54.70
20398;DHT22;10358;49.590;11.030;2023-03-02T14:23:47;15.50;54.10
20398;DHT22;10358;49.590;11.030;2023-03-02T14:26:34;15.50;53.90
20398;DHT22;10358;49.590;11.030;2023-03-02T14:29:15;15.60;54.00
20398;DHT22;10358;49.590;11.030;2023-03-02T14:31:43;15.60;53.20
20398;DHT22;10358;49.590;11.030;2023-03-02T14:34:12;15.60;53.60
20398;DHT22;10358;49.590;11.030;2023-03-02T14:36:38;15.70;53.50
20398;DHT22;10358;49.590;11.030;2023-03-02T14:39:10;15.70;52.90
20398;DHT22;10358;49.590;11.030;2023-03-02T14:41:39;15.70;52.20
20398;DHT22;10358;49.590;11.030;2023-03-02T14:44:09;15.50;52.00
20398;DHT22;10358;49.590;11.030;2023-03-02T14:46:35;15.50;52.40
20398;DHT22;10358;49.590;11.030;2023-03-02T14:49:00;15.50;52.70
20398;DHT22;10358;49.590;11.030;2023-03-02T14:51:28;15.80;53.40
20398;DHT22;10358;49.590;11.030;2023-03-02T14:53:55;16.00;53.50
20398;DHT22;10358;49.590;11.030;2023-03-02T14:56:22;16.20;53.50
20398;DHT22;10358;49.590;11.030;2023-03-02T14:58:51;16.40;52.90
20398;DHT22;10358;49.590;11.030;2023-03-02T15:01:18;16.60;52.60
20398;DHT22;10358;49.590;11.030;2023-03-02T15:03:44;16.50;51.00
20398;DHT22;10358;49.590;11.030;2023-03-02T15:06:24;16.40;51.60
20398;DHT22;10358;49.590;11.030;2023-03-02T15:08:52;16.50;52.00
20398;DHT22;10358;49.590;11.030;2023-03-02T15:11:17;16.50;51.20
20398;DHT22;10358;49.590;11.030;2023-03-02T15:13:43;16.30;51.40
20398;DHT22;10358;49.590;11.030;2023-03-02T15:16:12;16.40;51.00
20398;DHT22;10358;49.590;11.030;2023-03-02T15:18:38;16.40;51.70
20398;DHT22;10358;49.590;11.030;2023-03-02T15:21:04;16.40;51.10
20398;DHT22;10358;49.590;11.030;2023-03-02T15:23:30;16.40;50.80
20398;DHT22;10358;49.590;11.030;2023-03-02T15:26:01;16.40;50.60
20398;DHT22;10358;49.590;11.030;2023-03-02T15:28:27;16.40;51.20
20398;DHT22;10358;49.590;11.030;2023-03-02T15:30:53;16.40;51.50
20398;DHT22;10358;49.590;11.030;2023-03-02T15:33:19;16.30;51.70
20398;DHT22;10358;49.590;11.030;2023-03-02T15:35:50;16.30;51.00
20398;DHT22;10358;49.590;11.030;2023-03-02T15:38:16;16.20;50.60
20398;DHT22;10358;49.590;11.030;2023-03-02T15:40:41;16.00;50.40
20398;DHT22;10358;49.590;11.030;2023-03-02T15:43:07;16.00;51.20
20398;DHT22;10358;49.590;11.030;2023-03-02T15:45:32;16.10;51.50
20398;DHT22;10358;49.590;11.030;2023-03-02T15:47:58;16.30;51.30
20398;DHT22;10358;49.590;11.030;2023-03-02T15:50:23;16.30;51.00
20398;DHT22;10358;49.590;11.030;2023-03-02T15:52:49;16.30;50.70
20398;DHT22;10358;49.590;11.030;2023-03-02T15:55:15;16.30;51.00
20398;DHT22;10358;49.590;11.030;2023-03-02T15:57:41;16.20;51.10
20398;DHT22;10358;49.590;11.030;2023-03-02T16:00:07;16.20;51.10
20398;DHT22;10358;49.590;11.030;2023-03-02T16:02:33;16.20;51.40
20398;DHT22;10358;49.590;11.030;2023-03-02T16:04:59;16.20;51.70
20398;DHT22;10358;49.590;11.030;2023-03-02T16:07:24;16.10;51.20
20398;DHT22;10358;49.590;11.030;2023-03-02T16:09:50;16.10;51.90
20398;DHT22;10358;49.590;11.030;2023-03-02T16:12:16;16.10;51.80
20398;DHT22;10358;49.590;11.030;2023-03-02T16:14:44;16.00;52.20
20398;DHT22;10358;49.590;11.030;2023-03-02T16:17:10;15.90;51.80
20398;DHT22;10358;49.590;11.030;2023-03-02T16:19:36;15.80;51.50
20398;DHT22;10358;49.590;11.030;2023-03-02T16:22:02;15.60;51.30
20398;DHT22;10358;49.590;11.030;2023-03-02T16:24:27;15.60;51.40
20398;DHT22;10358;49.590;11.030;2023-03-02T16:26:53;15.70;51.40
20398;DHT22;10358;49.590;11.030;2023-03-02T16:29:18;15.70;51.30
20398;DHT22;10358;49.590;11.030;2023-03-02T16:31:45;15.60;50.80
20398;DHT22;10358;49.590;11.030;2023-03-02T16:34:11;15.30;51.30
20398;DHT22;10358;49.590;11.030;2023-03-02T16:36:38;14.90;52.20
20398;DHT22;10358;49.590;11.030;2023-03-02T16:39:06;14.60;52.70
20398;DHT22;10358;49.590;11.030;2023-03-02T16:41:32;14.40;53.20
20398;DHT22;10358;49.590;11.030;2023-03-02T16:43:58;14.20;53.70
20398;DHT22;10358;49.590;11.030;2023-03-02T16:46:26;14.00;54.10